• Join FlightAware (Why Join?)
  • Login
  • US Flag 
04:28AM EDT


 

Airport Tracker/Info


-or-


 

Live Flight TrackerFlight Track Log ✈ AWE4748 ✈ 11-Feb-2014 ✈ KMHT - KPHL

Flight Track Log - Related Links

Times and Time Zones

All times are in EST time to prevent confusion due to time zone crossing. See the AWE4748 flight status page for this flight to view local times or setup timezone preferences in your user account.

Time Position Orientation Groundspeed Altitude Reporting Facility
EST Latitude Longitude Course Direction KTS MPH feet Rate Location/Type
01:31PM 42.9333 -71.4333 144° Southeast 143 165 1,000  Level KA90
01:31PM 42.9833 -71.4500 346° North 194 223 3,400 3,180 Climbing KA90
01:32PM 43.0333 -71.4500 360° North 237 273 7,100 2,580 Climbing KA90
01:33PM 43.0258 -71.1636 71° East  Level FlightAware Approximate
01:34PM 43.0600 -71.0702 65° Northeast  Level FlightAware Approximate
01:35PM 43.0771 -70.9740 132° Southeast  Level FlightAware Approximate
01:35PM 43.0639 -71.2311 79° East 314 361 11,800  Level Boston Center
01:36PM 43.0204 -70.9037 144° Southeast  Level FlightAware Approximate
01:36PM 43.0631 -71.1033 90° East 333 383 14,300  Level Boston Center
01:37PM 43.0667 -70.9767 88° East 347 399 16,500 1,920 Climbing Boston Center
01:38PM 42.9808 -70.8947 145° Southeast 357 411 18,300 1,680 Climbing Boston Center
01:39PM 42.9022 -70.9222 194° South 317 365 20,000 1,620 Climbing Boston Center
01:40PM 42.8153 -70.9642 199° South 328 377 21,600 1,680 Climbing Boston Center
01:41PM 42.7306 -71.0050 199° South 327 376 23,500 1,440 Climbing Boston Center
01:42PM 42.6481 -71.0453 200° South 319 367 24,600 1,020 Climbing Boston Center
01:43PM 42.5753 -71.1050 211° Southwest 311 358 25,600 660 Climbing Boston Center
01:44PM 42.5064 -71.1719 216° Southwest 305 351 26,000 180 Climbing Boston Center
01:45PM 42.4161 -71.2572 215° Southwest 328 377 26,000  Level Boston Center
01:46PM 42.3575 -71.3142 216° Southwest 327 376 26,000  Level Boston Center
01:47PM 42.2825 -71.3858 215° Southwest 317 365 26,000  Level Boston Center
01:48PM 42.2108 -71.4536 215° Southwest 316 364 26,000  Level Boston Center
01:49PM 42.1386 -71.5219 215° Southwest 316 364 26,000  Level Boston Center
01:50PM 42.0517 -71.6033 215° Southwest 316 364 26,000  Level Boston Center
01:51PM 41.9786 -71.6711 215° Southwest 319 367 26,000  Level Boston Center
01:52PM 41.9058 -71.7400 215° Southwest 319 367 26,000  Level Boston Center
01:53PM 41.8319 -71.8083 215° Southwest 322 371 26,000  Level Boston Center
01:54PM 41.7583 -71.8778 215° Southwest 324 373 26,000  Level Boston Center
01:55PM 41.6844 -71.9456 214° Southwest 323 372 26,000  Level Boston Center
01:56PM 41.6097 -72.0133 214° Southwest 324 373 26,000  Level Boston Center
01:57PM 41.5344 -72.0833 215° Southwest 325 374 26,000  Level Boston Center
01:58PM 41.4608 -72.1503 214° Southwest 322 371 26,000  Level Boston Center
01:59PM 41.3869 -72.2192 215° Southwest 323 372 26,000  Level Boston Center
02:00PM 41.3142 -72.2853 214° Southwest 320 368 26,000  Level Boston Center
02:01PM 41.2425 -72.3508 215° Southwest 317 365 26,000  Level Boston Center
02:02PM 41.1703 -72.4156 214° Southwest 315 362 26,000  Level Boston Center
02:03PM 41.0847 -72.4936 215° Southwest 311 358 26,000  Level Boston Center
02:04PM 41.0150 -72.5569 214° Southwest 307 353 26,000  Level Boston Center
02:05PM 40.9453 -72.6203 214° Southwest 305 351 26,000  Level Boston Center
02:06PM 40.8747 -72.6817 213° Southwest 305 351 26,000  Level Boston Center
02:07PM 40.8064 -72.7450 215° Southwest 301 346 26,000  Level Boston Center
02:08PM 40.7375 -72.8069 214° Southwest 301 346 26,000 -180 Level Boston Center
02:09PM 40.6722 -72.8661 215° Southwest 300 345 25,700 -1,020 Descending Boston Center
02:10PM 40.5894 -72.9408 214° Southwest 301 346 23,800 -1,740 Descending Boston Center
02:11PM 40.5206 -73.0033 215° Southwest 302 348 22,200 -1,620 Descending Boston Center
02:12PM 40.4503 -73.0642 213° Southwest 302 348 20,600 -1,140 Descending Boston Center
02:13PM 40.3672 -73.1383 214° Southwest 312 359 20,000 -360 Descending New York Center
02:14PM 40.3014 -73.1958 214° Southwest 307 353 20,000  Level New York Center
02:15PM 40.2356 -73.2533 214° Southwest 307 353 20,000  Level New York Center
02:16PM 40.1719 -73.3081 213° Southwest 297 342 20,000  Level New York Center
02:17PM 40.1061 -73.3653 214° Southwest 291 335 20,000  Level New York Center
02:18PM 40.0403 -73.4225 214° Southwest 291 335 20,000  Level New York Center
02:19PM 39.9786 -73.4769 214° Southwest 291 335 20,000  Level New York Center
02:21PM 39.8797 -73.5772 218° Southwest 292 336 20,000  Level Washington Center
02:22PM 39.8311 -73.6542 231° Southwest 287 330 20,000  Level Washington Center
02:23PM 39.7844 -73.7283 231° Southwest 282 325 20,000 -480 Level Washington Center
02:24PM 39.7356 -73.8081 231° Southwest 282 325 19,100 -960 Descending Washington Center
02:25PM 39.6736 -73.8500 208° Southwest 261 300 18,100 -1,260 Descending Washington Center
02:26PM 39.5906 -73.8681 190° South 276 318 16,700 -1,440 Descending Washington Center
02:27PM 39.5014 -73.8892 190° South 304 350 15,300 -1,380 Descending Washington Center
02:28PM 39.4417 -73.9417 214° Southwest 312 359 14,000 -720 Descending Washington Center
02:29PM 39.4594 -74.0325 284° West 218 251 13,900 -60 Descending Washington Center
02:30PM 39.4794 -74.1208 286° West 233 268 13,900  Level Washington Center
02:31PM 39.4950 -74.2039 284° West 233 268 13,900  Level Washington Center
02:32PM 39.5147 -74.2869 287° West 238 274 13,900  Level Washington Center
02:33PM 39.5322 -74.3753 284° West 243 280 13,900 -480 Level Washington Center
02:35PM 39.5333 -74.5167 271° West 237 273 12,700 -1,080 Descending Philadelphia TRACON
02:36PM 39.5167 -74.6167 258° West 242 278 11,200 -1,500 Descending Philadelphia TRACON
02:37PM 39.5167 -74.6833 270° West 231 266 9,900 -1,140 Descending Philadelphia TRACON
02:38PM 39.5167 -74.8000 270° West 236 272 8,700 -960 Descending Philadelphia TRACON
02:39PM 39.5333 -74.8667 288° West 233 268 7,900 -960 Descending Philadelphia TRACON
02:40PM 39.5333 -74.9500 270° West 236 272 7,000 -480 Descending Philadelphia TRACON
02:41PM 39.5833 -75.0000 322° Northwest 233 268 7,000  Level Philadelphia TRACON
02:42PM 39.6333 -75.0500 322° Northwest 234 269 7,000  Level Philadelphia TRACON
02:43PM 39.7000 -75.0833 339° North 245 282 7,000 -540 Level Philadelphia TRACON
02:44PM 39.7667 -75.0667 11° North 253 291 6,000 -540 Descending Philadelphia TRACON
02:45PM 39.8000 -75.0000 57° Northeast 225 259 6,000 -360 Level Philadelphia TRACON
02:46PM 39.8500 -74.9833 14° North 151 174 5,300 -1,140 Descending Philadelphia TRACON
02:47PM 39.8833 -75.0000 339° North 170 196 3,800 -1,320 Descending Philadelphia TRACON
02:48PM 39.9000 -75.0500 293° West 154 177 2,800 -1,020 Descending Philadelphia TRACON
02:49PM 39.9000 -75.1000 270° West 140 161 1,800 -900 Descending Philadelphia TRACON
02:50PM 39.9000 -75.1500 270° West 127 146 900 -720 Descending Philadelphia TRACON
02:51PM 39.8833 -75.2000 247° West 125 144 400 -540 Descending Philadelphia TRACON